createdAt,value
2023-05-10T00:00:43.803Z,16.29
2023-05-10T00:01:44.469Z,16.25
2023-05-10T00:02:43.835Z,16.23
2023-05-10T00:03:43.873Z,16.11
2023-05-10T00:04:43.769Z,16.07
2023-05-10T00:05:43.767Z,16.04
2023-05-10T00:06:43.771Z,16.01
2023-05-10T00:07:43.755Z,15.88
2023-05-10T00:08:43.733Z,15.89
2023-05-10T00:09:43.753Z,15.88
2023-05-10T00:10:43.700Z,15.81
2023-05-10T00:11:43.755Z,15.86
2023-05-10T00:12:43.724Z,15.86
2023-05-10T00:13:43.725Z,15.85
2023-05-10T00:14:43.665Z,15.89
2023-05-10T00:15:43.651Z,15.88
2023-05-10T00:16:43.682Z,15.85
2023-05-10T00:17:43.637Z,15.77
2023-05-10T00:18:43.671Z,15.67
2023-05-10T00:19:43.604Z,15.70
2023-05-10T00:20:43.655Z,15.62
2023-05-10T00:21:43.601Z,15.60
2023-05-10T00:22:43.586Z,15.64
2023-05-10T00:23:43.558Z,15.64
2023-05-10T00:24:43.606Z,15.64
2023-05-10T00:25:43.537Z,15.70
2023-05-10T00:26:43.545Z,15.62
2023-05-10T00:27:43.519Z,15.59
2023-05-10T00:28:43.545Z,15.56
2023-05-10T00:29:43.553Z,15.52
2023-05-10T00:30:44.152Z,15.58
2023-05-10T00:31:43.501Z,15.62
2023-05-10T00:32:43.534Z,15.58
2023-05-10T00:33:43.467Z,15.51
2023-05-10T00:34:43.464Z,15.43
2023-05-10T00:35:43.443Z,15.46
2023-05-10T00:36:43.431Z,15.48
2023-05-10T00:37:43.442Z,15.51
2023-05-10T00:38:43.436Z,15.43
2023-05-10T00:39:43.388Z,15.35
2023-05-10T00:40:43.397Z,15.40
2023-05-10T00:41:43.357Z,15.38
2023-05-10T00:42:43.407Z,15.38
2023-05-10T00:43:49.872Z,15.41
2023-05-10T00:44:43.377Z,15.51
2023-05-10T00:45:43.360Z,15.55
2023-05-10T00:46:43.323Z,15.58
2023-05-10T00:47:43.401Z,15.58
2023-05-10T00:48:43.316Z,15.60
2023-05-10T00:49:43.275Z,15.58
2023-05-10T00:50:43.332Z,15.56
2023-05-10T00:51:43.260Z,15.58
2023-05-10T00:52:43.266Z,15.56
2023-05-10T00:53:43.229Z,15.53
2023-05-10T00:54:43.264Z,15.58
2023-05-10T00:55:43.210Z,15.53
2023-05-10T00:56:43.226Z,15.52
2023-05-10T00:57:43.184Z,15.49
2023-05-10T00:58:43.224Z,15.52
2023-05-10T00:59:43.179Z,15.51
2023-05-10T01:00:44.325Z,15.49
2023-05-10T01:01:43.206Z,15.48
2023-05-10T01:02:43.279Z,15.41
2023-05-10T01:03:43.119Z,15.41
2023-05-10T01:04:43.211Z,15.41
2023-05-10T01:05:43.134Z,15.44
2023-05-10T01:06:43.108Z,15.44
2023-05-10T01:07:43.105Z,15.35
2023-05-10T01:08:43.099Z,15.33
2023-05-10T01:09:43.073Z,15.30
2023-05-10T01:10:43.096Z,15.25
2023-05-10T01:11:43.055Z,15.22
2023-05-10T01:12:43.186Z,15.27
2023-05-10T01:13:43.056Z,15.27
2023-05-10T01:14:43.041Z,15.31
2023-05-10T01:15:43.045Z,15.34
2023-05-10T01:16:43.016Z,15.30
2023-05-10T01:17:42.985Z,15.25
2023-05-10T01:18:43.017Z,15.27
2023-05-10T01:19:42.980Z,15.31
2023-05-10T01:20:42.968Z,15.28
2023-05-10T01:21:42.935Z,15.23
2023-05-10T01:22:42.956Z,15.15
2023-05-10T01:23:42.921Z,15.05
2023-05-10T01:24:42.956Z,15.03
2023-05-10T01:25:42.888Z,14.95
2023-05-10T01:26:42.921Z,14.90
2023-05-10T01:27:42.869Z,14.86
2023-05-10T01:28:42.931Z,14.79
2023-05-10T01:29:42.850Z,14.82
2023-05-10T01:30:43.297Z,14.79
2023-05-10T01:31:42.910Z,14.74
2023-05-10T01:32:42.862Z,14.74
2023-05-10T01:33:42.812Z,14.74
2023-05-10T01:34:42.823Z,14.78
2023-05-10T01:35:42.811Z,14.83
2023-05-10T01:36:42.801Z,14.80
2023-05-10T01:37:42.763Z,14.83
2023-05-10T01:38:42.815Z,14.90
2023-05-10T01:39:42.746Z,14.91
2023-05-10T01:40:42.765Z,14.94
2023-05-10T01:41:42.721Z,14.90
2023-05-10T01:42:42.734Z,14.90
2023-05-10T01:43:42.730Z,14.86
2023-05-10T01:44:42.716Z,14.79
2023-05-10T01:45:42.689Z,14.75
2023-05-10T01:46:42.719Z,14.71
2023-05-10T01:47:42.686Z,14.75
2023-05-10T01:48:42.660Z,14.74
2023-05-10T01:49:42.694Z,14.79
2023-05-10T01:50:42.649Z,14.86
2023-05-10T01:51:42.616Z,14.90
2023-05-10T01:52:42.635Z,14.95
2023-05-10T01:53:42.588Z,14.94
2023-05-10T01:54:42.626Z,14.97
2023-05-10T01:55:42.578Z,14.97
2023-05-10T01:56:42.594Z,14.98
2023-05-10T01:57:42.552Z,14.98
2023-05-10T01:58:42.567Z,14.93
2023-05-10T01:59:42.555Z,14.93
2023-05-10T02:00:42.564Z,14.93
2023-05-10T02:01:42.534Z,14.87
2023-05-10T02:02:42.554Z,14.91
2023-05-10T02:03:42.520Z,14.82
2023-05-10T02:04:42.499Z,14.74
2023-05-10T02:05:42.511Z,14.67
2023-05-10T02:06:42.482Z,14.71
2023-05-10T02:07:42.463Z,14.72
2023-05-10T02:08:42.464Z,14.75
2023-05-10T02:09:42.430Z,14.72
2023-05-10T02:10:42.486Z,14.74
2023-05-10T02:11:42.408Z,14.79
2023-05-10T02:12:42.450Z,14.80
2023-05-10T02:13:42.380Z,14.82
2023-05-10T02:14:42.438Z,14.80
2023-05-10T02:15:42.398Z,14.80
2023-05-10T02:16:42.487Z,14.83
2023-05-10T02:17:42.381Z,14.86
2023-05-10T02:18:42.352Z,14.90
2023-05-10T02:19:42.335Z,14.91
2023-05-10T02:20:42.373Z,14.87
2023-05-10T02:21:42.316Z,14.86
2023-05-10T02:22:42.324Z,14.85
2023-05-10T02:23:42.273Z,14.79
2023-05-10T02:24:42.293Z,14.75
2023-05-10T02:25:42.298Z,14.71
2023-05-10T02:26:42.271Z,14.74
2023-05-10T02:27:42.244Z,14.78
2023-05-10T02:28:42.250Z,14.82
2023-05-10T02:29:42.215Z,14.87
2023-05-10T02:30:42.284Z,14.85
2023-05-10T02:31:42.216Z,14.80
2023-05-10T02:32:42.279Z,14.66
2023-05-10T02:33:42.161Z,14.59
2023-05-10T02:34:42.188Z,14.61
2023-05-10T02:35:42.165Z,14.64
2023-05-10T02:36:42.186Z,14.60
2023-05-10T02:37:42.138Z,14.49
2023-05-10T02:38:42.141Z,14.52
2023-05-10T02:39:42.116Z,14.52
2023-05-10T02:40:42.168Z,14.49
2023-05-10T02:41:42.091Z,14.48
2023-05-10T02:42:42.115Z,14.52
2023-05-10T02:43:42.076Z,14.45
2023-05-10T02:44:42.087Z,14.46
2023-05-10T02:45:42.103Z,14.41
2023-05-10T02:46:42.069Z,14.41
2023-05-10T02:47:42.107Z,14.34
2023-05-10T02:48:42.048Z,14.30
2023-05-10T02:49:42.016Z,14.24
2023-05-10T02:50:42.047Z,14.19
2023-05-10T02:51:42.008Z,14.19
2023-05-10T02:52:42.007Z,14.16
2023-05-10T02:53:42.000Z,14.13
2023-05-10T02:54:42.016Z,14.16
2023-05-10T02:55:41.974Z,14.17
2023-05-10T02:56:41.960Z,14.19
2023-05-10T02:57:41.922Z,14.21
2023-05-10T02:58:41.977Z,14.29
2023-05-10T02:59:41.894Z,14.23
2023-05-10T03:00:41.907Z,14.20
2023-05-10T03:01:41.932Z,14.24
2023-05-10T03:02:41.919Z,14.23
2023-05-10T03:03:41.904Z,14.24
2023-05-10T03:04:41.906Z,14.20
2023-05-10T03:05:41.853Z,14.20
2023-05-10T03:06:41.854Z,14.20
2023-05-10T03:07:41.852Z,14.21
2023-05-10T03:08:41.833Z,14.16
2023-05-10T03:09:41.807Z,14.16
2023-05-10T03:10:41.846Z,14.19
2023-05-10T03:11:41.782Z,14.17
2023-05-10T03:12:41.834Z,14.19
2023-05-10T03:13:41.792Z,14.21
2023-05-10T03:14:41.770Z,14.23
2023-05-10T03:15:41.802Z,14.23
2023-05-10T03:16:44.159Z,14.24
2023-05-10T03:17:41.741Z,14.26
2023-05-10T03:18:41.746Z,14.24
2023-05-10T03:19:41.728Z,14.26
2023-05-10T03:20:41.714Z,14.31
2023-05-10T03:21:41.681Z,14.35
2023-05-10T03:22:41.689Z,14.36
2023-05-10T03:23:41.628Z,14.31
2023-05-10T03:24:41.664Z,14.34
2023-05-10T03:25:41.639Z,14.31
2023-05-10T03:26:41.642Z,14.31
2023-05-10T03:27:41.558Z,14.31
2023-05-10T03:28:41.636Z,14.23
2023-05-10T03:29:41.611Z,14.27
2023-05-10T03:30:41.604Z,14.24
2023-05-10T03:31:41.638Z,14.20
2023-05-10T03:32:41.670Z,14.19
2023-05-10T03:33:41.557Z,14.21
2023-05-10T03:34:41.567Z,14.24
2023-05-10T03:35:41.542Z,14.30
2023-05-10T03:36:41.539Z,14.29
2023-05-10T03:37:56.419Z,14.30
2023-05-10T03:38:41.492Z,14.31
2023-05-10T03:39:41.461Z,14.29
2023-05-10T03:40:41.442Z,14.26
2023-05-10T03:41:41.432Z,14.21
2023-05-10T03:42:41.436Z,14.26
2023-05-10T03:43:41.460Z,14.27
2023-05-10T03:44:41.435Z,14.27
2023-05-10T03:45:41.379Z,14.31
2023-05-10T03:46:41.379Z,14.35
2023-05-10T03:47:41.387Z,14.38
2023-05-10T03:48:41.364Z,14.38
2023-05-10T03:49:41.356Z,14.36
2023-05-10T03:50:41.347Z,14.36
2023-05-10T03:51:41.320Z,14.34
2023-05-10T03:52:41.318Z,14.31
2023-05-10T03:53:41.320Z,14.30
2023-05-10T03:54:41.303Z,14.27
2023-05-10T03:55:41.273Z,14.26
2023-05-10T03:56:41.326Z,14.30
2023-05-10T03:57:41.247Z,14.26
2023-05-10T03:58:41.277Z,14.29
2023-05-10T03:59:41.237Z,14.29
2023-05-10T04:00:41.246Z,14.30
2023-05-10T04:01:41.237Z,14.29
2023-05-10T04:02:41.570Z,14.27
2023-05-10T04:03:41.229Z,14.30
2023-05-10T04:04:41.191Z,14.34
2023-05-10T04:05:41.174Z,14.34
2023-05-10T04:06:41.213Z,14.30
2023-05-10T04:07:41.151Z,14.31
2023-05-10T04:08:41.181Z,14.29
2023-05-10T04:09:41.136Z,14.31
2023-05-10T04:10:41.139Z,14.27
2023-05-10T04:11:41.139Z,14.29
2023-05-10T04:12:41.141Z,14.26
2023-05-10T04:13:41.101Z,14.27
2023-05-10T04:14:41.111Z,14.29
2023-05-10T04:15:41.076Z,14.27
2023-05-10T04:16:41.140Z,14.23
2023-05-10T04:17:41.115Z,14.19
2023-05-10T04:18:41.058Z,14.19
2023-05-10T04:19:41.018Z,14.23
2023-05-10T04:20:41.083Z,14.24
2023-05-10T04:21:41.007Z,14.17
2023-05-10T04:22:41.011Z,14.16
2023-05-10T04:23:40.977Z,14.08
2023-05-10T04:24:41.017Z,14.02
2023-05-10T04:25:40.947Z,14.06
2023-05-10T04:26:41.007Z,14.05
2023-05-10T04:27:40.946Z,14.11
2023-05-10T04:28:40.968Z,14.08
2023-05-10T04:29:40.970Z,14.08
2023-05-10T04:30:40.966Z,14.08
2023-05-10T04:31:40.922Z,14.05
2023-05-10T04:32:40.935Z,14.04
2023-05-10T04:33:40.898Z,14.04
2023-05-10T04:34:40.857Z,14.06
2023-05-10T04:35:40.940Z,14.06
2023-05-10T04:36:40.891Z,14.09
2023-05-10T04:37:40.875Z,14.13
2023-05-10T04:38:40.836Z,14.11
2023-05-10T04:39:42.352Z,14.13
2023-05-10T04:40:40.836Z,14.11
2023-05-10T04:41:40.834Z,14.09
2023-05-10T04:42:40.773Z,14.17
2023-05-10T04:43:40.803Z,14.19
2023-05-10T04:44:40.763Z,14.20
2023-05-10T04:45:40.766Z,14.16
2023-05-10T04:46:40.825Z,14.11
2023-05-10T04:47:40.760Z,14.08
2023-05-10T04:48:40.740Z,14.05
2023-05-10T04:49:40.732Z,14.01
2023-05-10T04:50:40.697Z,13.98
2023-05-10T04:51:40.737Z,13.91
2023-05-10T04:52:40.684Z,13.99
2023-05-10T04:53:41.800Z,13.93
2023-05-10T04:54:40.658Z,13.99
2023-05-10T04:55:40.666Z,14.05
2023-05-10T04:56:40.658Z,14.12
2023-05-10T04:57:40.681Z,14.13
2023-05-10T04:58:40.609Z,14.21
2023-05-10T04:59:40.636Z,14.19
2023-05-10T05:00:40.609Z,14.21
2023-05-10T05:01:40.698Z,14.29
2023-05-10T05:02:40.677Z,14.30
2023-05-10T05:03:40.715Z,14.35
2023-05-10T05:04:40.565Z,14.31
2023-05-10T05:05:40.599Z,14.26
2023-05-10T05:06:40.548Z,14.24
2023-05-10T05:07:40.574Z,14.21
2023-05-10T05:08:40.523Z,14.23
2023-05-10T05:09:40.530Z,14.20
2023-05-10T05:10:40.528Z,14.16
2023-05-10T05:11:40.544Z,14.12
2023-05-10T05:12:40.484Z,14.13
2023-05-10T05:13:40.488Z,14.19
2023-05-10T05:14:40.459Z,14.23
2023-05-10T05:15:40.490Z,14.21
2023-05-10T05:16:40.514Z,14.17
2023-05-10T05:17:40.456Z,14.23
2023-05-10T05:18:40.402Z,14.23
2023-05-10T05:19:40.429Z,14.24
2023-05-10T05:20:40.401Z,14.26
2023-05-10T05:21:40.429Z,14.13
2023-05-10T05:22:40.375Z,14.16
2023-05-10T05:23:40.375Z,14.16
2023-05-10T05:24:40.354Z,14.04
2023-05-10T05:25:40.373Z,13.91
2023-05-10T05:26:40.362Z,13.94
2023-05-10T05:27:40.360Z,13.99
2023-05-10T05:28:40.314Z,14.04
2023-05-10T05:29:40.324Z,14.09
2023-05-10T05:30:40.300Z,14.11
2023-05-10T05:31:40.358Z,14.12
2023-05-10T05:32:40.324Z,14.16
2023-05-10T05:33:40.288Z,14.13
2023-05-10T05:34:40.251Z,14.12
2023-05-10T05:35:40.263Z,14.11
2023-05-10T05:36:40.257Z,14.09
2023-05-10T05:37:40.275Z,14.09
2023-05-10T05:38:40.207Z,14.05
2023-05-10T05:39:40.211Z,14.02
2023-05-10T05:40:40.181Z,13.99
2023-05-10T05:41:40.194Z,14.02
2023-05-10T05:42:40.190Z,14.05
2023-05-10T05:43:40.173Z,14.04
2023-05-10T05:44:40.140Z,14.08
2023-05-10T05:45:40.183Z,14.08
2023-05-10T05:46:40.146Z,14.08
2023-05-10T05:47:40.215Z,14.09
2023-05-10T05:48:40.089Z,14.06
2023-05-10T05:49:40.121Z,14.09
2023-05-10T05:50:40.095Z,14.08
2023-05-10T05:51:40.112Z,14.05
2023-05-10T05:52:40.068Z,14.01
2023-05-10T05:53:40.465Z,14.02
2023-05-10T05:54:40.039Z,14.01
2023-05-10T05:55:40.066Z,13.90
2023-05-10T05:56:40.028Z,13.72
2023-05-10T05:57:40.053Z,13.73
2023-05-10T05:58:40.037Z,13.68
2023-05-10T05:59:40.005Z,13.68
2023-05-10T06:00:39.981Z,13.63
2023-05-10T06:01:40.120Z,13.59
2023-05-10T06:02:40.143Z,13.59
2023-05-10T06:03:40.065Z,13.61
2023-05-10T06:04:40.165Z,13.63
2023-05-10T06:05:39.982Z,13.63
2023-05-10T06:06:40.020Z,13.63
2023-05-10T06:07:39.937Z,13.55
2023-05-10T06:08:39.896Z,13.54
2023-05-10T06:09:39.917Z,13.54
2023-05-10T06:10:39.908Z,13.57
2023-05-10T06:11:39.890Z,13.62
2023-05-10T06:12:39.849Z,13.62
2023-05-10T06:13:39.873Z,13.63
2023-05-10T06:14:39.861Z,13.61
2023-05-10T06:15:39.868Z,13.65
2023-05-10T06:16:39.863Z,13.63
2023-05-10T06:17:39.964Z,13.62
2023-05-10T06:18:39.797Z,13.65
2023-05-10T06:19:39.820Z,13.65
2023-05-10T06:20:39.780Z,13.69
2023-05-10T06:21:39.848Z,13.73
2023-05-10T06:22:39.772Z,13.72
2023-05-10T06:23:39.798Z,13.72
2023-05-10T06:24:39.733Z,13.73
2023-05-10T06:25:39.750Z,13.73
2023-05-10T06:26:39.715Z,13.73
2023-05-10T06:27:39.718Z,13.72
2023-05-10T06:28:39.723Z,13.68
2023-05-10T06:29:39.718Z,13.71
2023-05-10T06:30:39.661Z,13.69
2023-05-10T06:31:40.612Z,13.69
2023-05-10T06:32:39.660Z,13.69
2023-05-10T06:33:39.706Z,13.72
2023-05-10T06:34:39.634Z,13.73
2023-05-10T06:35:39.658Z,13.72
2023-05-10T06:36:39.606Z,13.72
2023-05-10T06:37:39.634Z,13.75
2023-05-10T06:38:39.633Z,13.75
2023-05-10T06:39:39.594Z,13.80
2023-05-10T06:40:39.628Z,13.83
2023-05-10T06:41:39.599Z,13.84
2023-05-10T06:42:39.560Z,13.84
2023-05-10T06:43:39.566Z,13.83
2023-05-10T06:44:39.530Z,13.84
2023-05-10T06:45:39.571Z,13.83
2023-05-10T06:46:39.559Z,13.83
2023-05-10T06:47:39.717Z,13.90
2023-05-10T06:48:39.527Z,13.86
2023-05-10T06:49:39.504Z,13.88
2023-05-10T06:50:39.485Z,13.88
2023-05-10T06:51:39.483Z,13.87
2023-05-10T06:52:39.486Z,13.87
2023-05-10T06:53:39.455Z,13.81
2023-05-10T06:54:39.436Z,13.84
2023-05-10T06:55:39.463Z,13.84
2023-05-10T06:56:39.444Z,13.83
2023-05-10T06:57:39.452Z,13.81
2023-05-10T06:58:39.428Z,13.81
2023-05-10T06:59:39.517Z,13.83
2023-05-10T07:00:39.467Z,13.84
2023-05-10T07:01:39.458Z,13.81
2023-05-10T07:02:39.396Z,13.81
2023-05-10T07:03:39.391Z,13.81
2023-05-10T07:04:39.367Z,13.76
2023-05-10T07:05:39.625Z,13.79
2023-05-10T07:06:39.299Z,13.76
2023-05-10T07:07:39.343Z,13.68
2023-05-10T07:08:39.296Z,13.59
2023-05-10T07:09:39.319Z,13.59
2023-05-10T07:10:39.294Z,13.59
2023-05-10T07:11:39.265Z,13.59
2023-05-10T07:12:39.373Z,13.59
2023-05-10T07:13:39.291Z,13.61
2023-05-10T07:14:39.247Z,13.61
2023-05-10T07:15:39.265Z,13.62
2023-05-10T07:16:39.232Z,13.61
2023-05-10T07:17:39.259Z,13.54
2023-05-10T07:18:39.261Z,13.55
2023-05-10T07:19:39.203Z,13.54
2023-05-10T07:20:39.160Z,13.54
2023-05-10T07:21:39.174Z,13.55
2023-05-10T07:22:39.130Z,13.50
2023-05-10T07:23:39.178Z,13.54
2023-05-10T07:24:39.123Z,13.54
2023-05-10T07:25:39.141Z,13.59
2023-05-10T07:26:39.127Z,13.61
2023-05-10T07:27:39.108Z,13.59
2023-05-10T07:28:39.081Z,13.65
2023-05-10T07:29:39.103Z,13.66
2023-05-10T07:30:39.078Z,13.65
2023-05-10T07:31:39.106Z,13.61
2023-05-10T07:32:39.165Z,13.65
2023-05-10T07:33:39.055Z,13.72
2023-05-10T07:34:39.005Z,13.79
2023-05-10T07:35:39.059Z,13.79
2023-05-10T07:36:38.991Z,13.86
2023-05-10T07:37:39.028Z,13.90
2023-05-10T07:38:40.906Z,13.96
2023-05-10T07:39:39.101Z,13.98
2023-05-10T07:40:38.976Z,14.01
2023-05-10T07:41:38.967Z,14.04
2023-05-10T07:42:38.959Z,14.08
2023-05-10T07:43:38.950Z,14.16
2023-05-10T07:44:38.904Z,14.21
2023-05-10T07:45:38.974Z,14.27
2023-05-10T07:46:38.929Z,14.31
2023-05-10T07:47:38.957Z,14.38
2023-05-10T07:48:38.865Z,14.44
2023-05-10T07:49:38.883Z,14.41
2023-05-10T07:50:38.868Z,14.48
2023-05-10T07:51:38.875Z,14.45
2023-05-10T07:52:38.833Z,14.46
2023-05-10T07:53:38.839Z,14.48
2023-05-10T07:54:38.811Z,14.48
2023-05-10T07:55:38.819Z,14.49
2023-05-10T07:56:38.827Z,14.54
2023-05-10T07:57:38.807Z,14.57
2023-05-10T07:58:38.774Z,14.63
2023-05-10T07:59:38.812Z,14.48
2023-05-10T08:00:46.169Z,14.52
2023-05-10T08:01:38.757Z,14.52
2023-05-10T08:02:38.789Z,14.56
2023-05-10T08:03:38.890Z,14.60
2023-05-10T08:04:38.798Z,14.67
2023-05-10T08:05:38.711Z,14.78
2023-05-10T08:06:38.702Z,14.87
2023-05-10T08:07:38.692Z,14.97
2023-05-10T08:08:38.661Z,14.97
2023-05-10T08:09:38.723Z,15.01
2023-05-10T08:10:38.640Z,14.94
2023-05-10T08:11:38.671Z,14.87
2023-05-10T08:12:38.674Z,14.87
2023-05-10T08:13:38.631Z,14.95
2023-05-10T08:14:38.646Z,14.98
2023-05-10T08:15:38.631Z,15.03
2023-05-10T08:16:38.572Z,15.01
2023-05-10T08:17:38.693Z,15.00
2023-05-10T08:18:38.583Z,15.00
2023-05-10T08:19:38.567Z,15.01
2023-05-10T08:20:38.532Z,15.03
2023-05-10T08:21:38.550Z,15.07
2023-05-10T08:22:38.533Z,15.09
2023-05-10T08:23:38.532Z,15.18
2023-05-10T08:24:38.521Z,15.19
2023-05-10T08:25:38.511Z,15.30
2023-05-10T08:26:38.469Z,15.34
2023-05-10T08:27:38.525Z,15.33
2023-05-10T08:28:38.447Z,15.34
2023-05-10T08:29:49.028Z,15.35
2023-05-10T08:30:38.464Z,15.37
2023-05-10T08:31:38.485Z,15.40
2023-05-10T08:32:38.512Z,15.27
2023-05-10T08:33:38.447Z,15.27
2023-05-10T08:34:38.387Z,15.31
2023-05-10T08:35:38.386Z,15.38
2023-05-10T08:36:38.376Z,15.49
2023-05-10T08:37:38.372Z,15.58
2023-05-10T08:38:38.386Z,15.60
2023-05-10T08:39:38.431Z,15.64
2023-05-10T08:40:38.306Z,15.60
2023-05-10T08:41:38.323Z,15.66
2023-05-10T08:42:38.315Z,15.76
2023-05-10T08:43:38.306Z,15.78
2023-05-10T08:44:38.277Z,15.73
2023-05-10T08:45:38.298Z,15.66
2023-05-10T08:46:38.313Z,15.71
2023-05-10T08:47:38.303Z,15.76
2023-05-10T08:48:38.280Z,15.78
2023-05-10T08:49:38.210Z,15.76
2023-05-10T08:50:38.227Z,15.78
2023-05-10T08:51:38.372Z,15.84
2023-05-10T08:52:38.211Z,15.84
2023-05-10T08:53:38.180Z,15.88
2023-05-10T08:54:38.179Z,15.93
2023-05-10T08:55:38.141Z,15.91
2023-05-10T08:56:45.118Z,15.88
2023-05-10T08:57:38.146Z,15.86
2023-05-10T08:58:38.140Z,15.92
2023-05-10T08:59:38.112Z,15.93
2023-05-10T09:00:38.283Z,16.04
2023-05-10T09:01:38.126Z,16.18
2023-05-10T09:02:38.238Z,16.23
2023-05-10T09:03:38.075Z,16.33
2023-05-10T09:04:38.173Z,16.34
2023-05-10T09:05:38.044Z,16.50
2023-05-10T09:06:38.143Z,16.55
2023-05-10T09:07:38.010Z,16.47
2023-05-10T09:08:38.058Z,16.27
2023-05-10T09:09:38.004Z,16.32
2023-05-10T09:10:38.007Z,16.16
2023-05-10T09:11:37.987Z,16.26
2023-05-10T09:12:38.396Z,16.25
2023-05-10T09:13:37.951Z,16.25
2023-05-10T09:14:37.970Z,16.25
2023-05-10T09:15:37.958Z,16.17
2023-05-10T09:16:38.095Z,16.17
2023-05-10T09:17:37.960Z,16.18
2023-05-10T09:18:37.984Z,16.18
2023-05-10T09:19:37.940Z,16.17
2023-05-10T09:20:37.905Z,16.27
2023-05-10T09:21:37.898Z,16.25
2023-05-10T09:22:37.890Z,16.33
2023-05-10T09:23:37.855Z,16.34
2023-05-10T09:24:37.909Z,16.41
2023-05-10T09:25:37.828Z,16.45
2023-05-10T09:26:37.932Z,16.54
2023-05-10T09:27:37.813Z,16.59
2023-05-10T09:28:37.879Z,16.65
2023-05-10T09:29:37.794Z,16.67
2023-05-10T09:30:37.873Z,16.66
2023-05-10T09:31:37.793Z,16.66
2023-05-10T09:32:37.784Z,16.52
2023-05-10T09:33:37.739Z,16.34
2023-05-10T09:34:37.754Z,16.07
2023-05-10T09:35:37.794Z,15.99
2023-05-10T09:36:37.799Z,16.10
2023-05-10T09:37:37.692Z,16.17
2023-05-10T09:38:37.724Z,16.25
2023-05-10T09:39:37.685Z,16.32
2023-05-10T09:40:37.730Z,16.36
2023-05-10T09:41:37.659Z,16.44
2023-05-10T09:42:37.698Z,16.60
2023-05-10T09:43:37.631Z,16.63
2023-05-10T09:44:37.647Z,16.77
2023-05-10T09:45:39.010Z,16.80
2023-05-10T09:46:37.692Z,16.78
2023-05-10T09:47:37.701Z,16.63
2023-05-10T09:48:37.610Z,16.62
2023-05-10T09:49:37.592Z,16.69
2023-05-10T09:50:37.615Z,16.69
2023-05-10T09:51:37.588Z,16.66
2023-05-10T09:52:37.578Z,16.63
2023-05-10T09:53:37.548Z,16.67
2023-05-10T09:54:37.611Z,16.67
2023-05-10T09:55:37.525Z,16.77
2023-05-10T09:56:37.538Z,16.85
2023-05-10T09:57:37.515Z,16.82
2023-05-10T09:58:37.501Z,16.78
2023-05-10T09:59:37.463Z,16.72
2023-05-10T10:00:37.502Z,16.70
2023-05-10T10:01:37.452Z,16.65
2023-05-10T10:02:37.535Z,16.60
2023-05-10T10:03:37.465Z,16.60
2023-05-10T10:04:37.494Z,16.59
2023-05-10T10:05:37.386Z,16.57
2023-05-10T10:06:37.397Z,16.47
2023-05-10T10:07:37.399Z,16.48
2023-05-10T10:08:37.413Z,16.50
2023-05-10T10:09:37.359Z,16.47
2023-05-10T10:10:37.381Z,16.52
2023-05-10T10:11:37.332Z,16.63
2023-05-10T10:12:37.345Z,16.70
2023-05-10T10:13:37.329Z,16.78
2023-05-10T10:14:37.342Z,16.81
2023-05-10T10:15:37.370Z,16.88
2023-05-10T10:16:39.950Z,16.85
2023-05-10T10:17:37.276Z,16.73
2023-05-10T10:18:37.375Z,16.77
2023-05-10T10:19:37.667Z,16.88
2023-05-10T10:20:37.281Z,17.00
2023-05-10T10:21:37.224Z,17.17
2023-05-10T10:22:37.235Z,17.27
2023-05-10T10:23:37.246Z,17.40
2023-05-10T10:24:37.223Z,17.51
2023-05-10T10:25:37.178Z,17.63
2023-05-10T10:26:37.181Z,17.79
2023-05-10T10:27:37.155Z,17.70
2023-05-10T10:28:37.190Z,17.58
2023-05-10T10:29:37.126Z,17.70
2023-05-10T10:30:37.156Z,17.84
2023-05-10T10:31:37.284Z,18.09
2023-05-10T10:32:37.134Z,18.21
2023-05-10T10:33:37.145Z,18.21
2023-05-10T10:34:37.094Z,18.25
2023-05-10T10:35:37.097Z,18.31
2023-05-10T10:36:37.080Z,18.26
2023-05-10T10:37:37.050Z,18.25
2023-05-10T10:38:37.046Z,18.09
2023-05-10T10:39:37.020Z,17.96
2023-05-10T10:40:37.452Z,17.91
2023-05-10T10:41:37.033Z,17.87
2023-05-10T10:42:37.012Z,17.98
2023-05-10T10:43:36.981Z,18.16
2023-05-10T10:44:37.031Z,18.31
2023-05-10T10:45:37.022Z,18.32
2023-05-10T10:46:36.983Z,18.60
2023-05-10T10:47:36.932Z,18.75
2023-05-10T10:48:36.936Z,18.89
2023-05-10T10:49:36.933Z,18.76
2023-05-10T10:50:36.928Z,18.75
2023-05-10T10:51:36.898Z,18.83
2023-05-10T10:52:36.918Z,18.79
2023-05-10T10:53:36.887Z,18.69
2023-05-10T10:54:36.881Z,18.57
2023-05-10T10:55:36.912Z,18.65
2023-05-10T10:56:37.216Z,18.51
2023-05-10T10:57:36.820Z,18.53
2023-05-10T10:58:36.852Z,18.16
2023-05-10T10:59:36.817Z,18.10
2023-05-10T11:00:36.893Z,18.29
2023-05-10T11:01:36.964Z,18.20
2023-05-10T11:02:36.853Z,18.02
2023-05-10T11:03:36.776Z,17.46
2023-05-10T11:04:36.784Z,17.42
2023-05-10T11:05:36.774Z,17.39
2023-05-10T11:06:36.972Z,17.54
2023-05-10T11:07:36.715Z,17.74
2023-05-10T11:08:38.301Z,18.09
2023-05-10T11:09:36.703Z,18.44
2023-05-10T11:10:36.783Z,18.36
2023-05-10T11:11:36.691Z,18.42
2023-05-10T11:12:36.685Z,18.56
2023-05-10T11:13:36.652Z,18.59
2023-05-10T11:14:36.659Z,18.74
2023-05-10T11:15:36.667Z,18.83
2023-05-10T11:16:36.717Z,18.83
2023-05-10T11:17:36.643Z,18.87
2023-05-10T11:18:36.699Z,19.10
2023-05-10T11:19:36.594Z,19.01
2023-05-10T11:20:36.615Z,18.90
2023-05-10T11:21:36.599Z,18.93
2023-05-10T11:22:36.592Z,18.78
2023-05-10T11:23:36.618Z,18.74
2023-05-10T11:24:36.577Z,18.57
2023-05-10T11:25:36.523Z,18.47
2023-05-10T11:26:36.580Z,18.51
2023-05-10T11:27:36.528Z,18.59
2023-05-10T11:28:36.534Z,18.65
2023-05-10T11:29:36.489Z,18.69
2023-05-10T11:30:36.516Z,18.66
2023-05-10T11:31:36.504Z,18.53
2023-05-10T11:32:36.543Z,18.50
2023-05-10T11:33:36.449Z,18.49
2023-05-10T11:34:36.601Z,18.49
2023-05-10T11:35:36.450Z,18.54
2023-05-10T11:36:36.455Z,18.57
2023-05-10T11:37:36.394Z,18.47
2023-05-10T11:38:36.452Z,18.39
2023-05-10T11:39:36.412Z,18.07
2023-05-10T11:40:36.409Z,17.96
2023-05-10T11:41:36.383Z,17.95
2023-05-10T11:42:36.374Z,18.04
2023-05-10T11:43:36.338Z,18.07
2023-05-10T11:44:36.390Z,18.19
2023-05-10T11:45:36.362Z,18.23
2023-05-10T11:46:36.360Z,18.26
2023-05-10T11:47:36.350Z,18.28
2023-05-10T11:48:36.310Z,18.35
2023-05-10T11:49:36.290Z,18.36
2023-05-10T11:50:36.299Z,18.32
2023-05-10T11:51:36.263Z,18.34
2023-05-10T11:52:36.286Z,18.35
2023-05-10T11:53:36.253Z,18.34
2023-05-10T11:54:36.286Z,18.35
2023-05-10T11:55:36.222Z,18.29
2023-05-10T11:56:36.239Z,18.34
2023-05-10T11:57:36.214Z,18.23
2023-05-10T11:58:36.214Z,18.13
2023-05-10T11:59:36.201Z,18.04
2023-05-10T12:00:36.210Z,17.92
2023-05-10T12:01:36.186Z,17.86
2023-05-10T12:02:36.226Z,17.91
2023-05-10T12:03:36.240Z,17.76
2023-05-10T12:04:36.210Z,17.71
2023-05-10T12:05:36.100Z,17.65
2023-05-10T12:06:36.138Z,17.60
2023-05-10T12:07:36.136Z,17.66
2023-05-10T12:08:36.114Z,17.66
2023-05-10T12:09:43.773Z,17.76
2023-05-10T12:10:36.086Z,17.80
2023-05-10T12:11:36.069Z,17.84
2023-05-10T12:12:36.064Z,17.87
2023-05-10T12:13:36.020Z,17.98
2023-05-10T12:14:36.081Z,18.02
2023-05-10T12:15:35.997Z,18.02
2023-05-10T12:16:36.062Z,18.07
2023-05-10T12:17:36.015Z,18.02
2023-05-10T12:18:36.047Z,18.05
2023-05-10T12:19:35.962Z,18.02
2023-05-10T12:20:35.968Z,17.86
2023-05-10T12:21:35.967Z,17.71
2023-05-10T12:22:35.948Z,17.58
2023-05-10T12:23:35.939Z,17.55
2023-05-10T12:24:35.939Z,17.65
2023-05-10T12:25:35.903Z,17.66
2023-05-10T12:26:35.931Z,17.74
2023-05-10T12:27:35.873Z,17.66
2023-05-10T12:28:35.886Z,17.63
2023-05-10T12:29:35.870Z,17.62
2023-05-10T12:30:35.947Z,17.62
2023-05-10T12:31:35.879Z,17.49
2023-05-10T12:32:35.878Z,17.51
2023-05-10T12:33:35.818Z,17.46
2023-05-10T12:34:35.823Z,17.40
2023-05-10T12:35:35.801Z,17.39
2023-05-10T12:36:35.807Z,17.38
2023-05-10T12:37:35.956Z,17.28
2023-05-10T12:38:35.786Z,17.33
2023-05-10T12:39:35.824Z,17.30
2023-05-10T12:40:35.809Z,17.14
2023-05-10T12:41:35.757Z,17.09
2023-05-10T12:42:35.781Z,17.03
2023-05-10T12:43:35.734Z,16.84
2023-05-10T12:44:35.710Z,16.78
2023-05-10T12:45:35.728Z,16.66
2023-05-10T12:46:35.737Z,16.59
2023-05-10T12:47:35.746Z,16.48
2023-05-10T12:48:35.675Z,16.44
2023-05-10T12:49:35.660Z,16.33
2023-05-10T12:50:35.690Z,16.10
2023-05-10T12:51:35.648Z,15.70
2023-05-10T12:52:35.635Z,15.33